sensor_id;sensor_type;location;lat;lon;timestamp;pressure;altitude;pressure_sealevel;temperature;humidity
9525;BME280;15940;48.734;9.112;2023-05-11T00:01:25;96356.31;;;11.27;84.37
9525;BME280;15940;48.734;9.112;2023-05-11T00:03:51;96351.41;;;11.20;83.77
9525;BME280;15940;48.734;9.112;2023-05-11T00:06:18;96347.97;;;11.19;85.11
9525;BME280;15940;48.734;9.112;2023-05-11T00:08:45;96348.69;;;11.25;85.10
9525;BME280;15940;48.734;9.112;2023-05-11T00:11:12;96346.72;;;11.26;84.31
9525;BME280;15940;48.734;9.112;2023-05-11T00:13:40;96339.81;;;11.30;84.91
9525;BME280;15940;48.734;9.112;2023-05-11T00:16:07;96337.81;;;11.36;84.45
9525;BME280;15940;48.734;9.112;2023-05-11T00:18:34;96339.56;;;11.28;85.06
9525;BME280;15940;48.734;9.112;2023-05-11T00:21:01;96337.06;;;11.36;84.39
9525;BME280;15940;48.734;9.112;2023-05-11T00:23:28;96336.38;;;11.30;83.35
9525;BME280;15940;48.734;9.112;2023-05-11T00:25:55;96343.50;;;11.33;84.81
9525;BME280;15940;48.734;9.112;2023-05-11T00:28:22;96337.09;;;11.30;84.09
9525;BME280;15940;48.734;9.112;2023-05-11T00:30:55;96339.06;;;11.30;84.63
9525;BME280;15940;48.734;9.112;2023-05-11T00:33:22;96336.59;;;11.26;84.16
9525;BME280;15940;48.734;9.112;2023-05-11T00:35:48;96329.47;;;11.23;84.20
9525;BME280;15940;48.734;9.112;2023-05-11T00:38:15;96329.19;;;11.32;83.60
9525;BME280;15940;48.734;9.112;2023-05-11T00:40:42;96328.69;;;11.34;84.47
9525;BME280;15940;48.734;9.112;2023-05-11T00:43:09;96326.72;;;11.34;84.10
9525;BME280;15940;48.734;9.112;2023-05-11T00:45:36;96331.91;;;11.32;84.74
9525;BME280;15940;48.734;9.112;2023-05-11T00:48:06;96334.88;;;11.29;84.38
9525;BME280;15940;48.734;9.112;2023-05-11T00:50:34;96324.28;;;11.31;83.83
9525;BME280;15940;48.734;9.112;2023-05-11T00:53:02;96333.16;;;11.31;84.62
9525;BME280;15940;48.734;9.112;2023-05-11T00:55:29;96328.97;;;11.30;84.62
9525;BME280;15940;48.734;9.112;2023-05-11T00:57:56;96332.88;;;11.35;84.07
9525;BME280;15940;48.734;9.112;2023-05-11T01:00:23;96332.38;;;11.36;84.42
9525;BME280;15940;48.734;9.112;2023-05-11T01:02:51;96331.69;;;11.25;83.17
9525;BME280;15940;48.734;9.112;2023-05-11T01:05:19;96327.25;;;11.16;83.66
9525;BME280;15940;48.734;9.112;2023-05-11T01:07:52;96332.69;;;11.10;84.42
9525;BME280;15940;48.734;9.112;2023-05-11T01:10:27;96324.81;;;11.12;85.07
9525;BME280;15940;48.734;9.112;2023-05-11T01:13:13;96329.22;;;11.21;84.81
9525;BME280;15940;48.734;9.112;2023-05-11T01:15:47;96333.41;;;11.22;84.76
9525;BME280;15940;48.734;9.112;2023-05-11T01:18:21;96331.94;;;11.15;84.43
9525;BME280;15940;48.734;9.112;2023-05-11T01:20:56;96336.63;;;11.15;84.96
9525;BME280;15940;48.734;9.112;2023-05-11T01:24:19;96331.97;;;11.10;85.34
9525;BME280;15940;48.734;9.112;2023-05-11T01:27:13;96333.69;;;11.19;84.93
9525;BME280;15940;48.734;9.112;2023-05-11T01:30:29;96331.69;;;11.25;84.57
9525;BME280;15940;48.734;9.112;2023-05-11T01:33:02;96315.91;;;11.18;84.67
9525;BME280;15940;48.734;9.112;2023-05-11T01:35:32;96319.13;;;11.22;84.56
9525;BME280;15940;48.734;9.112;2023-05-11T01:38:02;96328.00;;;11.28;84.09
9525;BME280;15940;48.734;9.112;2023-05-11T01:40:33;96319.13;;;11.22;84.26
9525;BME280;15940;48.734;9.112;2023-05-11T01:43:04;96325.50;;;11.30;84.78
9525;BME280;15940;48.734;9.112;2023-05-11T01:45:40;96330.72;;;11.28;84.15
9525;BME280;15940;48.734;9.112;2023-05-11T01:48:15;96327.25;;;11.22;83.51
9525;BME280;15940;48.734;9.112;2023-05-11T01:50:43;96333.44;;;11.11;82.84
9525;BME280;15940;48.734;9.112;2023-05-11T01:53:13;96330.97;;;11.07;83.77
9525;BME280;15940;48.734;9.112;2023-05-11T01:55:41;96330.00;;;11.10;84.46
9525;BME280;15940;48.734;9.112;2023-05-11T01:58:12;96328.75;;;11.06;84.53
9525;BME280;15940;48.734;9.112;2023-05-11T02:00:42;96336.38;;;11.19;84.51
9525;BME280;15940;48.734;9.112;2023-05-11T02:03:10;96329.72;;;11.20;84.39
9525;BME280;15940;48.734;9.112;2023-05-11T02:05:39;96330.94;;;11.24;84.73
9525;BME280;15940;48.734;9.112;2023-05-11T02:08:09;96323.53;;;11.25;84.42
9525;BME280;15940;48.734;9.112;2023-05-11T02:10:39;96329.19;;;11.27;84.38
9525;BME280;15940;48.734;9.112;2023-05-11T02:13:08;96328.97;;;11.25;84.20
9525;BME280;15940;48.734;9.112;2023-05-11T02:15:38;96335.38;;;11.22;84.64
9525;BME280;15940;48.734;9.112;2023-05-11T02:18:12;96332.94;;;11.12;82.91
9525;BME280;15940;48.734;9.112;2023-05-11T02:20:43;96341.06;;;11.12;84.35
9525;BME280;15940;48.734;9.112;2023-05-11T02:23:11;96338.59;;;11.14;84.09
9525;BME280;15940;48.734;9.112;2023-05-11T02:25:39;96335.91;;;11.09;83.54
9525;BME280;15940;48.734;9.112;2023-05-11T02:28:07;96331.94;;;11.15;84.16
9525;BME280;15940;48.734;9.112;2023-05-11T02:30:42;96330.47;;;11.14;82.68
9525;BME280;15940;48.734;9.112;2023-05-11T02:33:17;96342.81;;;11.10;83.10
9525;BME280;15940;48.734;9.112;2023-05-11T02:35:46;96332.44;;;11.14;83.39
9525;BME280;15940;48.734;9.112;2023-05-11T02:38:15;96338.09;;;11.16;84.04
9525;BME280;15940;48.734;9.112;2023-05-11T02:40:46;96333.41;;;11.22;84.32
9525;BME280;15940;48.734;9.112;2023-05-11T02:43:19;96323.31;;;11.23;83.66
9525;BME280;15940;48.734;9.112;2023-05-11T02:45:51;96323.31;;;11.23;82.31
9525;BME280;15940;48.734;9.112;2023-05-11T02:48:25;96318.88;;;11.20;83.51
9525;BME280;15940;48.734;9.112;2023-05-11T02:50:54;96329.22;;;11.21;82.66
9525;BME280;15940;48.734;9.112;2023-05-11T02:53:26;96329.97;;;11.22;83.53
9525;BME280;15940;48.734;9.112;2023-05-11T02:55:54;96327.50;;;11.24;83.50
9525;BME280;15940;48.734;9.112;2023-05-11T02:58:22;96329.00;;;11.19;83.62
9525;BME280;15940;48.734;9.112;2023-05-11T03:00:49;96337.59;;;11.18;83.69
9525;BME280;15940;48.734;9.112;2023-05-11T03:03:16;96332.44;;;11.14;83.67
9525;BME280;15940;48.734;9.112;2023-05-11T03:05:45;96326.03;;;11.11;83.92
9525;BME280;15940;48.734;9.112;2023-05-11T03:08:12;96324.31;;;11.08;83.91
9525;BME280;15940;48.734;9.112;2023-05-11T03:10:39;96322.59;;;11.05;84.57
9525;BME280;15940;48.734;9.112;2023-05-11T03:13:08;96321.38;;;10.95;83.71
9525;BME280;15940;48.734;9.112;2023-05-11T03:15:36;96324.34;;;10.86;85.48
9525;BME280;15940;48.734;9.112;2023-05-11T03:18:04;96319.16;;;10.77;83.56
9525;BME280;15940;48.734;9.112;2023-05-11T03:20:35;96316.94;;;10.70;84.56
9525;BME280;15940;48.734;9.112;2023-05-11T03:23:04;96310.03;;;10.69;85.84
9525;BME280;15940;48.734;9.112;2023-05-11T03:25:32;96317.94;;;10.72;85.43
9525;BME280;15940;48.734;9.112;2023-05-11T03:28:00;96317.44;;;10.63;84.73
9525;BME280;15940;48.734;9.112;2023-05-11T03:30:28;96318.91;;;10.69;86.81
9525;BME280;15940;48.734;9.112;2023-05-11T03:32:55;96313.03;;;10.71;86.06
9525;BME280;15940;48.734;9.112;2023-05-11T03:35:24;96307.84;;;10.67;85.27
9525;BME280;15940;48.734;9.112;2023-05-11T03:37:54;96309.56;;;10.76;86.32
9525;BME280;15940;48.734;9.112;2023-05-11T03:40:23;96304.13;;;10.76;87.19
9525;BME280;15940;48.734;9.112;2023-05-11T03:42:53;96310.53;;;10.84;86.79
9525;BME280;15940;48.734;9.112;2023-05-11T03:45:21;96312.25;;;10.93;86.24
9525;BME280;15940;48.734;9.112;2023-05-11T03:47:49;96308.56;;;10.96;86.15
9525;BME280;15940;48.734;9.112;2023-05-11T03:50:17;96315.22;;;10.95;86.34
9525;BME280;15940;48.734;9.112;2023-05-11T03:52:45;96306.59;;;11.02;85.68
9525;BME280;15940;48.734;9.112;2023-05-11T03:55:13;96303.63;;;11.00;85.82
9525;BME280;15940;48.734;9.112;2023-05-11T03:57:42;96299.16;;;11.08;86.43
9525;BME280;15940;48.734;9.112;2023-05-11T04:00:10;96302.16;;;11.04;86.06
9525;BME280;15940;48.734;9.112;2023-05-11T04:02:37;96294.28;;;11.01;86.42
9525;BME280;15940;48.734;9.112;2023-05-11T04:05:07;96295.25;;;10.98;86.15
9525;BME280;15940;48.734;9.112;2023-05-11T04:07:35;96302.63;;;11.03;86.21
9525;BME280;15940;48.734;9.112;2023-05-11T04:10:04;96298.47;;;11.02;85.65
9525;BME280;15940;48.734;9.112;2023-05-11T04:12:31;96301.16;;;11.07;85.88
9525;BME280;15940;48.734;9.112;2023-05-11T04:15:00;96298.19;;;11.05;85.88
9525;BME280;15940;48.734;9.112;2023-05-11T04:17:27;96299.19;;;11.02;85.52
9525;BME280;15940;48.734;9.112;2023-05-11T04:19:53;96293.50;;;11.06;85.98
9525;BME280;15940;48.734;9.112;2023-05-11T04:22:20;96290.56;;;11.04;85.31
9525;BME280;15940;48.734;9.112;2023-05-11T04:24:47;96298.19;;;11.05;85.95
9525;BME280;15940;48.734;9.112;2023-05-11T04:27:14;96297.97;;;11.03;85.92
9525;BME280;15940;48.734;9.112;2023-05-11T04:29:42;96300.91;;;11.11;86.15
9525;BME280;15940;48.734;9.112;2023-05-11T04:32:10;96298.94;;;11.11;86.01
9525;BME280;15940;48.734;9.112;2023-05-11T04:34:37;96302.16;;;11.10;85.50
9525;BME280;15940;48.734;9.112;2023-05-11T04:37:05;96309.28;;;11.13;85.53
9525;BME280;15940;48.734;9.112;2023-05-11T04:39:32;96312.47;;;11.17;85.81
9525;BME280;15940;48.734;9.112;2023-05-11T04:41:59;96307.56;;;11.10;85.34
9525;BME280;15940;48.734;9.112;2023-05-11T04:44:26;96302.63;;;11.08;84.79
9525;BME280;15940;48.734;9.112;2023-05-11T04:46:53;96311.50;;;11.09;85.84
9525;BME280;15940;48.734;9.112;2023-05-11T04:49:22;96303.63;;;11.11;86.03
9525;BME280;15940;48.734;9.112;2023-05-11T04:51:49;96301.16;;;11.19;85.63
9525;BME280;15940;48.734;9.112;2023-05-11T04:54:16;96301.63;;;11.17;84.80
9525;BME280;15940;48.734;9.112;2023-05-11T04:56:43;96311.50;;;11.14;85.96
9525;BME280;15940;48.734;9.112;2023-05-11T04:59:10;96311.25;;;11.12;85.86
9525;BME280;15940;48.734;9.112;2023-05-11T05:01:37;96308.03;;;11.20;85.35
9525;BME280;15940;48.734;9.112;2023-05-11T05:04:03;96309.00;;;11.22;85.18
9525;BME280;15940;48.734;9.112;2023-05-11T05:06:32;96313.94;;;11.24;85.10
9525;BME280;15940;48.734;9.112;2023-05-11T05:08:59;96300.88;;;11.22;85.34
9525;BME280;15940;48.734;9.112;2023-05-11T05:11:26;96306.31;;;11.22;85.55
9525;BME280;15940;48.734;9.112;2023-05-11T05:13:53;96312.72;;;11.19;85.52
9525;BME280;15940;48.734;9.112;2023-05-11T05:16:20;96311.72;;;11.22;85.30
9525;BME280;15940;48.734;9.112;2023-05-11T05:18:47;96315.69;;;11.21;85.00
9525;BME280;15940;48.734;9.112;2023-05-11T05:21:14;96311.75;;;11.11;84.43
9525;BME280;15940;48.734;9.112;2023-05-11T05:23:43;96311.50;;;11.14;85.84
9525;BME280;15940;48.734;9.112;2023-05-11T05:26:10;96304.84;;;11.21;86.12
9525;BME280;15940;48.734;9.112;2023-05-11T05:28:37;96312.47;;;11.23;85.22
9525;BME280;15940;48.734;9.112;2023-05-11T05:31:04;96318.34;;;11.27;85.16
9525;BME280;15940;48.734;9.112;2023-05-11T05:33:31;96311.47;;;11.26;83.43
9525;BME280;15940;48.734;9.112;2023-05-11T05:35:58;96313.19;;;11.29;85.00
9525;BME280;15940;48.734;9.112;2023-05-11T05:38:25;96322.78;;;11.35;84.88
9525;BME280;15940;48.734;9.112;2023-05-11T05:40:53;96316.66;;;11.29;84.67
9525;BME280;15940;48.734;9.112;2023-05-11T05:43:20;96317.88;;;11.23;83.69
9525;BME280;15940;48.734;9.112;2023-05-11T05:45:47;96314.94;;;11.15;83.95
9525;BME280;15940;48.734;9.112;2023-05-11T05:48:14;96320.34;;;11.26;84.08
9525;BME280;15940;48.734;9.112;2023-05-11T05:50:40;96322.84;;;11.19;83.72
9525;BME280;15940;48.734;9.112;2023-05-11T05:53:07;96321.06;;;11.27;84.04
9525;BME280;15940;48.734;9.112;2023-05-11T05:55:34;96323.78;;;11.32;83.88
9525;BME280;15940;48.734;9.112;2023-05-11T05:58:02;96322.09;;;11.18;80.77
9525;BME280;15940;48.734;9.112;2023-05-11T06:00:29;96321.59;;;11.14;82.00
9525;BME280;15940;48.734;9.112;2023-05-11T06:02:56;96324.53;;;11.22;83.17
9525;BME280;15940;48.734;9.112;2023-05-11T06:05:23;96324.78;;;11.29;83.73
9525;BME280;15940;48.734;9.112;2023-05-11T06:07:50;96327.50;;;11.29;83.18
9525;BME280;15940;48.734;9.112;2023-05-11T06:10:17;96334.38;;;11.36;83.61
9525;BME280;15940;48.734;9.112;2023-05-11T06:12:44;96331.66;;;11.41;83.07
9525;BME280;15940;48.734;9.112;2023-05-11T06:15:13;96331.63;;;11.53;82.84
9525;BME280;15940;48.734;9.112;2023-05-11T06:17:40;96337.03;;;11.58;82.91
9525;BME280;15940;48.734;9.112;2023-05-11T06:20:08;96332.84;;;11.57;82.70
9525;BME280;15940;48.734;9.112;2023-05-11T06:22:35;96334.09;;;11.56;82.29
9525;BME280;15940;48.734;9.112;2023-05-11T06:25:02;96326.41;;;11.55;82.12
9525;BME280;15940;48.734;9.112;2023-05-11T06:27:29;96332.84;;;11.57;82.12
9525;BME280;15940;48.734;9.112;2023-05-11T06:29:56;96336.03;;;11.61;82.11
9525;BME280;15940;48.734;9.112;2023-05-11T06:32:25;96337.72;;;11.64;82.39
9525;BME280;15940;48.734;9.112;2023-05-11T06:34:52;96336.50;;;11.65;82.57
9525;BME280;15940;48.734;9.112;2023-05-11T06:37:18;96326.88;;;11.70;83.65
9525;BME280;15940;48.734;9.112;2023-05-11T06:39:46;96340.44;;;11.76;82.39
9525;BME280;15940;48.734;9.112;2023-05-11T06:42:13;96336.50;;;11.65;81.53
9525;BME280;15940;48.734;9.112;2023-05-11T06:44:40;96335.56;;;11.57;81.36
9525;BME280;15940;48.734;9.112;2023-05-11T06:47:07;96340.22;;;11.68;82.00
9525;BME280;15940;48.734;9.112;2023-05-11T06:49:35;96332.75;;;11.74;82.64
9525;BME280;15940;48.734;9.112;2023-05-11T06:52:02;96334.25;;;11.86;82.84
9525;BME280;15940;48.734;9.112;2023-05-11T06:54:29;96342.13;;;11.79;82.60
9525;BME280;15940;48.734;9.112;2023-05-11T06:56:56;96327.34;;;11.74;82.72
9525;BME280;15940;48.734;9.112;2023-05-11T06:59:23;96338.69;;;11.78;82.98
9525;BME280;15940;48.734;9.112;2023-05-11T07:01:50;96334.75;;;11.73;82.16
9525;BME280;15940;48.734;9.112;2023-05-11T07:04:17;96331.06;;;11.71;82.67
9525;BME280;15940;48.734;9.112;2023-05-11T07:06:45;96334.56;;;11.60;81.36
9525;BME280;15940;48.734;9.112;2023-05-11T07:09:12;96348.84;;;11.55;81.65
9525;BME280;15940;48.734;9.112;2023-05-11T07:11:39;96345.44;;;11.49;82.57
9525;BME280;15940;48.734;9.112;2023-05-11T07:14:06;96342.47;;;11.58;83.69
9525;BME280;15940;48.734;9.112;2023-05-11T07:16:33;96341.72;;;11.58;83.89
9525;BME280;15940;48.734;9.112;2023-05-11T07:19:02;96343.66;;;11.63;84.32
9525;BME280;15940;48.734;9.112;2023-05-11T07:21:29;96344.16;;;11.56;85.10
9525;BME280;15940;48.734;9.112;2023-05-11T07:23:59;96342.41;;;11.69;85.52
9525;BME280;15940;48.734;9.112;2023-05-11T07:26:26;96339.97;;;11.66;83.33
9525;BME280;15940;48.734;9.112;2023-05-11T07:28:53;96347.84;;;11.64;83.30
9525;BME280;15940;48.734;9.112;2023-05-11T07:31:20;96342.69;;;11.66;83.59
9525;BME280;15940;48.734;9.112;2023-05-11T07:33:47;96348.84;;;11.61;82.68
9525;BME280;15940;48.734;9.112;2023-05-11T07:36:14;96352.78;;;11.65;85.14
9525;BME280;15940;48.734;9.112;2023-05-11T07:38:41;96352.03;;;11.70;84.66
9525;BME280;15940;48.734;9.112;2023-05-11T07:41:09;96346.09;;;11.78;85.97
9525;BME280;15940;48.734;9.112;2023-05-11T07:43:36;96354.50;;;11.80;85.07
9525;BME280;15940;48.734;9.112;2023-05-11T07:46:03;96348.81;;;11.72;84.89
9525;BME280;15940;48.734;9.112;2023-05-11T07:48:30;96346.09;;;11.78;85.61
9525;BME280;15940;48.734;9.112;2023-05-11T07:50:57;96348.78;;;11.83;86.39
9525;BME280;15940;48.734;9.112;2023-05-11T07:53:24;96347.56;;;11.79;83.97
9525;BME280;15940;48.734;9.112;2023-05-11T07:55:51;96354.47;;;11.74;84.72
9525;BME280;15940;48.734;9.112;2023-05-11T07:58:19;96346.34;;;11.80;85.47
9525;BME280;15940;48.734;9.112;2023-05-11T08:00:46;96341.41;;;11.78;84.90
9525;BME280;15940;48.734;9.112;2023-05-11T08:03:13;96348.31;;;11.73;83.85
9525;BME280;15940;48.734;9.112;2023-05-11T08:05:40;96344.13;;;11.72;86.08
9525;BME280;15940;48.734;9.112;2023-05-11T08:08:07;96350.31;;;11.67;84.74
9525;BME280;15940;48.734;9.112;2023-05-11T08:10:35;96345.59;;;11.73;85.14
9525;BME280;15940;48.734;9.112;2023-05-11T08:13:02;96344.59;;;11.82;84.52
9525;BME280;15940;48.734;9.112;2023-05-11T08:15:30;96348.56;;;11.87;85.90
9525;BME280;15940;48.734;9.112;2023-05-11T08:17:58;96354.69;;;11.93;85.24
9525;BME280;15940;48.734;9.112;2023-05-11T08:20:26;96355.91;;;11.97;86.13
9525;BME280;15940;48.734;9.112;2023-05-11T08:22:53;96350.19;;;12.07;85.34
9525;BME280;15940;48.734;9.112;2023-05-11T08:25:20;96349.97;;;12.05;84.52
9525;BME280;15940;48.734;9.112;2023-05-11T08:27:46;96348.78;;;11.83;83.34
9525;BME280;15940;48.734;9.112;2023-05-11T08:30:14;96353.25;;;11.81;82.89
9525;BME280;15940;48.734;9.112;2023-05-11T08:32:43;96344.34;;;11.74;84.82
9525;BME280;15940;48.734;9.112;2023-05-11T08:35:11;96347.09;;;11.80;83.93
9525;BME280;15940;48.734;9.112;2023-05-11T08:37:38;96349.56;;;11.72;83.59
9525;BME280;15940;48.734;9.112;2023-05-11T08:40:06;96352.25;;;11.78;83.60
9525;BME280;15940;48.734;9.112;2023-05-11T08:42:37;96346.78;;;11.95;84.45
9525;BME280;15940;48.734;9.112;2023-05-11T08:45:06;96349.28;;;11.87;82.20
9525;BME280;15940;48.734;9.112;2023-05-11T08:47:34;96356.94;;;11.78;82.19
9525;BME280;15940;48.734;9.112;2023-05-11T08:50:04;96348.06;;;11.77;83.80
9525;BME280;15940;48.734;9.112;2023-05-11T08:52:31;96353.50;;;11.83;84.93
9525;BME280;15940;48.734;9.112;2023-05-11T08:54:59;96354.94;;;11.89;85.76
9525;BME280;15940;48.734;9.112;2023-05-11T08:57:28;96354.72;;;11.87;85.62
9525;BME280;15940;48.734;9.112;2023-05-11T08:59:57;96351.25;;;11.87;85.59
9525;BME280;15940;48.734;9.112;2023-05-11T09:02:24;96349.09;;;11.63;83.27
9525;BME280;15940;48.734;9.112;2023-05-11T09:04:51;96353.53;;;11.60;84.35
9525;BME280;15940;48.734;9.112;2023-05-11T09:07:21;96351.56;;;11.66;84.93
9525;BME280;15940;48.734;9.112;2023-05-11T09:09:49;96347.06;;;11.74;86.63
9525;BME280;15940;48.734;9.112;2023-05-11T09:12:16;96360.41;;;11.72;85.94
9525;BME280;15940;48.734;9.112;2023-05-11T09:14:43;96357.22;;;11.80;86.75
9525;BME280;15940;48.734;9.112;2023-05-11T09:17:11;96361.88;;;11.73;86.69
9525;BME280;15940;48.734;9.112;2023-05-11T09:19:56;96347.81;;;11.81;86.67
9525;BME280;15940;48.734;9.112;2023-05-11T09:22:26;96354.72;;;11.82;87.30
9525;BME280;15940;48.734;9.112;2023-05-11T09:24:53;96356.72;;;11.76;88.01
9525;BME280;15940;48.734;9.112;2023-05-11T09:27:23;96350.78;;;11.83;88.09
9525;BME280;15940;48.734;9.112;2023-05-11T09:29:52;96353.03;;;11.62;86.61
9525;BME280;15940;48.734;9.112;2023-05-11T09:32:19;96351.34;;;11.59;86.56
9525;BME280;15940;48.734;9.112;2023-05-11T09:34:46;96352.84;;;11.43;86.53
9525;BME280;15940;48.734;9.112;2023-05-11T09:37:17;96351.09;;;11.45;88.00
9525;BME280;15940;48.734;9.112;2023-05-11T09:39:46;96356.53;;;11.57;87.47
9525;BME280;15940;48.734;9.112;2023-05-11T09:42:20;96352.03;;;11.65;87.44
9525;BME280;15940;48.734;9.112;2023-05-11T09:44:48;96344.38;;;11.69;88.58
9525;BME280;15940;48.734;9.112;2023-05-11T09:47:16;96353.00;;;11.79;88.04
9525;BME280;15940;48.734;9.112;2023-05-11T09:49:45;96351.00;;;11.79;87.38
9525;BME280;15940;48.734;9.112;2023-05-11T09:52:14;96349.00;;;11.91;88.69
9525;BME280;15940;48.734;9.112;2023-05-11T09:54:43;96351.22;;;11.98;87.44
9525;BME280;15940;48.734;9.112;2023-05-11T09:59:40;96354.94;;;11.89;85.05
9525;BME280;15940;48.734;9.112;2023-05-11T10:02:26;96357.16;;;11.96;85.82
9525;BME280;15940;48.734;9.112;2023-05-11T10:04:55;96354.66;;;11.98;85.61
9525;BME280;15940;48.734;9.112;2023-05-11T10:07:24;96350.22;;;12.01;86.26
9525;BME280;15940;48.734;9.112;2023-05-11T10:09:53;96353.38;;;12.11;86.40
9525;BME280;15940;48.734;9.112;2023-05-11T10:12:22;96354.06;;;12.22;87.16
9525;BME280;15940;48.734;9.112;2023-05-11T10:14:54;96353.75;;;12.32;85.62
9525;BME280;15940;48.734;9.112;2023-05-11T10:17:21;96350.28;;;12.31;86.57
9525;BME280;15940;48.734;9.112;2023-05-11T10:19:48;96350.38;;;12.20;85.64
9525;BME280;15940;48.734;9.112;2023-05-11T10:22:15;96351.59;;;12.24;85.88
9525;BME280;15940;48.734;9.112;2023-05-11T10:24:43;96348.38;;;12.26;84.69
9525;BME280;15940;48.734;9.112;2023-05-11T10:27:11;96346.91;;;12.19;86.77
9525;BME280;15940;48.734;9.112;2023-05-11T10:29:38;96349.63;;;12.19;85.64
9525;BME280;15940;48.734;9.112;2023-05-11T10:32:07;96347.84;;;12.33;85.14
9525;BME280;15940;48.734;9.112;2023-05-11T10:34:36;96347.78;;;12.39;85.60
9525;BME280;15940;48.734;9.112;2023-05-11T10:37:05;96335.97;;;12.30;84.81
9525;BME280;15940;48.734;9.112;2023-05-11T10:39:32;96346.06;;;12.41;85.27
9525;BME280;15940;48.734;9.112;2023-05-11T10:42:28;96341.09;;;12.45;85.05
9525;BME280;15940;48.734;9.112;2023-05-11T10:45:15;96333.66;;;12.51;85.63
9525;BME280;15940;48.734;9.112;2023-05-11T10:48:23;96334.38;;;12.52;84.76
9525;BME280;15940;48.734;9.112;2023-05-11T10:51:11;96330.41;;;12.53;84.84
9525;BME280;15940;48.734;9.112;2023-05-11T10:54:20;96336.75;;;12.67;85.14
9525;BME280;15940;48.734;9.112;2023-05-11T10:57:21;96334.38;;;12.52;83.18
9525;BME280;15940;48.734;9.112;2023-05-11T11:03:14;96326.38;;;12.65;82.75
9525;BME280;15940;48.734;9.112;2023-05-11T11:05:42;96324.91;;;12.64;82.84
9525;BME280;15940;48.734;9.112;2023-05-11T11:08:11;96323.44;;;12.63;82.81
9525;BME280;15940;48.734;9.112;2023-05-11T11:10:40;96324.16;;;12.64;83.43
9525;BME280;15940;48.734;9.112;2023-05-11T11:13:13;96319.88;;;12.74;83.08
9525;BME280;15940;48.734;9.112;2023-05-11T11:16:10;96329.28;;;12.73;82.14
9525;BME280;15940;48.734;9.112;2023-05-11T11:18:37;96320.72;;;12.93;82.39
9525;BME280;15940;48.734;9.112;2023-05-11T11:21:06;96326.28;;;13.06;80.21
9525;BME280;15940;48.734;9.112;2023-05-11T11:23:48;96331.31;;;12.97;79.14
9525;BME280;15940;48.734;9.112;2023-05-11T11:26:44;96328.72;;;13.10;80.58
9525;BME280;15940;48.734;9.112;2023-05-11T11:29:11;96330.91;;;13.17;79.35
9525;BME280;15940;48.734;9.112;2023-05-11T11:31:39;96326.25;;;13.12;78.59
9525;BME280;15940;48.734;9.112;2023-05-11T11:34:32;96326.78;;;13.05;77.39
9525;BME280;15940;48.734;9.112;2023-05-11T11:37:04;96330.13;;;13.16;79.46
9525;BME280;15940;48.734;9.112;2023-05-11T11:39:54;96326.16;;;13.23;78.80
9525;BME280;15940;48.734;9.112;2023-05-11T11:42:36;96329.06;;;13.31;78.49
9525;BME280;15940;48.734;9.112;2023-05-11T11:45:30;96327.41;;;13.22;77.20
9525;BME280;15940;48.734;9.112;2023-05-11T11:48:14;96327.72;;;13.13;76.35
9525;BME280;15940;48.734;9.112;2023-05-11T11:50:44;96325.63;;;13.25;78.07
9525;BME280;15940;48.734;9.112;2023-05-11T11:54:04;96318.31;;;13.14;75.07
9525;BME280;15940;48.734;9.112;2023-05-11T11:56:42;96326.78;;;13.35;78.17
9525;BME280;15940;48.734;9.112;2023-05-11T11:59:13;96322.97;;;13.43;78.58
9525;BME280;15940;48.734;9.112;2023-05-11T12:01:43;96324.44;;;13.44;78.54
9525;BME280;15940;48.734;9.112;2023-05-11T12:04:40;96324.41;;;13.50;77.76
9525;BME280;15940;48.734;9.112;2023-05-11T12:07:11;96324.63;;;13.52;76.90
9525;BME280;15940;48.734;9.112;2023-05-11T12:09:45;96307.34;;;13.50;75.51
9525;BME280;15940;48.734;9.112;2023-05-11T12:12:12;96312.72;;;13.55;74.45
9525;BME280;15940;48.734;9.112;2023-05-11T12:14:43;96310.88;;;13.63;75.46
9525;BME280;15940;48.734;9.112;2023-05-11T12:17:14;96314.09;;;13.86;75.16
9525;BME280;15940;48.734;9.112;2023-05-11T12:19:42;96314.00;;;13.92;75.25
9525;BME280;15940;48.734;9.112;2023-05-11T12:22:11;96317.47;;;13.92;74.75
9525;BME280;15940;48.734;9.112;2023-05-11T12:24:39;96320.66;;;13.96;74.36
9525;BME280;15940;48.734;9.112;2023-05-11T12:27:08;96318.50;;;13.89;75.00
9525;BME280;15940;48.734;9.112;2023-05-11T12:29:35;96314.69;;;13.98;75.54
9525;BME280;15940;48.734;9.112;2023-05-11T12:32:02;96312.84;;;14.06;74.25
9525;BME280;15940;48.734;9.112;2023-05-11T12:34:29;96307.97;;;13.99;74.38
9525;BME280;15940;48.734;9.112;2023-05-11T12:36:56;96306.50;;;13.98;74.36
9525;BME280;15940;48.734;9.112;2023-05-11T12:39:26;96305.84;;;13.92;72.91
9525;BME280;15940;48.734;9.112;2023-05-11T12:41:54;96312.16;;;13.81;74.07
9525;BME280;15940;48.734;9.112;2023-05-11T12:44:24;96302.75;;;13.82;73.54
9525;BME280;15940;48.734;9.112;2023-05-11T12:46:52;96300.75;;;13.83;74.90
9525;BME280;15940;48.734;9.112;2023-05-11T12:49:21;96296.72;;;13.89;74.63
9525;BME280;15940;48.734;9.112;2023-05-11T12:51:51;96301.22;;;14.06;75.02
9525;BME280;15940;48.734;9.112;2023-05-11T12:54:30;96301.44;;;14.08;72.34
9525;BME280;15940;48.734;9.112;2023-05-11T12:56:58;96297.03;;;14.05;73.46
9525;BME280;15940;48.734;9.112;2023-05-11T12:59:35;96289.59;;;14.05;71.51
9525;BME280;15940;48.734;9.112;2023-05-11T13:02:20;96291.06;;;13.87;70.02
9525;BME280;15940;48.734;9.112;2023-05-11T13:04:48;96288.84;;;13.86;72.74
9525;BME280;15940;48.734;9.112;2023-05-11T13:07:27;96281.22;;;13.84;72.40
9525;BME280;15940;48.734;9.112;2023-05-11T13:09:59;96280.38;;;13.70;71.90
9525;BME280;15940;48.734;9.112;2023-05-11T13:12:27;96274.78;;;13.82;71.96
9525;BME280;15940;48.734;9.112;2023-05-11T13:15:06;96275.53;;;13.82;70.88
9525;BME280;15940;48.734;9.112;2023-05-11T13:17:35;96279.97;;;13.85;70.91
9525;BME280;15940;48.734;9.112;2023-05-11T13:20:19;96274.88;;;13.95;72.78
9525;BME280;15940;48.734;9.112;2023-05-11T13:22:47;96274.06;;;13.81;70.64
9525;BME280;15940;48.734;9.112;2023-05-11T13:25:17;96270.00;;;13.88;70.72
9525;BME280;15940;48.734;9.112;2023-05-11T13:27:44;96271.53;;;13.83;70.24
9525;BME280;15940;48.734;9.112;2023-05-11T13:30:13;96275.97;;;13.86;70.81
9525;BME280;15940;48.734;9.112;2023-05-11T13:32:40;96269.94;;;13.93;71.22